sensor_id;sensor_type;location;lat;lon;timestamp;pressure;altitude;pressure_sealevel;temperature;humidity
75942;BME280;64622;46.220;19.878;2023-08-24T00:01:28;100429.00;;;23.55;100.00
75942;BME280;64622;46.220;19.878;2023-08-24T00:03:55;100412.16;;;23.46;100.00
75942;BME280;64622;46.220;19.878;2023-08-24T00:06:21;100422.97;;;23.41;100.00
75942;BME280;64622;46.220;19.878;2023-08-24T00:08:48;100422.00;;;23.36;100.00
75942;BME280;64622;46.220;19.878;2023-08-24T00:11:15;100430.06;;;23.31;100.00
75942;BME280;64622;46.220;19.878;2023-08-24T00:13:42;100423.06;;;23.23;100.00
75942;BME280;64622;46.220;19.878;2023-08-24T00:16:16;100427.34;;;23.19;100.00
75942;BME280;64622;46.220;19.878;2023-08-24T00:18:43;100422.34;;;23.16;100.00
75942;BME280;64622;46.220;19.878;2023-08-24T00:21:13;100426.25;;;23.09;100.00
75942;BME280;64622;46.220;19.878;2023-08-24T00:23:40;100431.47;;;23.10;100.00
75942;BME280;64622;46.220;19.878;2023-08-24T00:26:06;100431.09;;;23.07;100.00
75942;BME280;64622;46.220;19.878;2023-08-24T00:28:33;100427.78;;;23.05;100.00
75942;BME280;64622;46.220;19.878;2023-08-24T00:31:01;100424.22;;;22.93;100.00
75942;BME280;64622;46.220;19.878;2023-08-24T00:33:27;100422.19;;;22.88;100.00
75942;BME280;64622;46.220;19.878;2023-08-24T00:35:59;100436.09;;;22.87;100.00
75942;BME280;64622;46.220;19.878;2023-08-24T00:38:26;100436.78;;;22.82;100.00
75942;BME280;64622;46.220;19.878;2023-08-24T00:40:52;100432.03;;;22.78;100.00
75942;BME280;64622;46.220;19.878;2023-08-24T00:43:20;100444.37;;;22.80;100.00
75942;BME280;64622;46.220;19.878;2023-08-24T00:45:51;100444.16;;;22.82;100.00
75942;BME280;64622;46.220;19.878;2023-08-24T00:48:21;100439.72;;;22.81;100.00
75942;BME280;64622;46.220;19.878;2023-08-24T00:50:55;100431.41;;;22.76;100.00
75942;BME280;64622;46.220;19.878;2023-08-24T00:53:24;100426.44;;;22.73;100.00
75942;BME280;64622;46.220;19.878;2023-08-24T00:55:52;100435.84;;;22.77;100.00
75942;BME280;64622;46.220;19.878;2023-08-24T00:58:20;100441.16;;;22.72;100.00
75942;BME280;64622;46.220;19.878;2023-08-24T01:00:52;100429.50;;;22.65;100.00
75942;BME280;64622;46.220;19.878;2023-08-24T01:03:22;100440.53;;;22.70;100.00
75942;BME280;64622;46.220;19.878;2023-08-24T01:05:49;100434.81;;;22.60;100.00
75942;BME280;64622;46.220;19.878;2023-08-24T01:08:16;100452.03;;;22.60;100.00
75942;BME280;64622;46.220;19.878;2023-08-24T01:13:48;100437.66;;;22.53;100.00
75942;BME280;64622;46.220;19.878;2023-08-24T01:16:20;100445.47;;;22.50;100.00
75942;BME280;64622;46.220;19.878;2023-08-24T01:18:55;100436.91;;;22.46;100.00
75942;BME280;64622;46.220;19.878;2023-08-24T01:21:23;100449.09;;;22.44;100.00
75942;BME280;64622;46.220;19.878;2023-08-24T01:26:23;100457.09;;;22.27;100.00
75942;BME280;64622;46.220;19.878;2023-08-24T01:28:50;100454.84;;;22.24;100.00
75942;BME280;64622;46.220;19.878;2023-08-24T01:31:17;100450.41;;;22.23;100.00
75942;BME280;64622;46.220;19.878;2023-08-24T01:33:44;100451.72;;;22.21;100.00
75942;BME280;64622;46.220;19.878;2023-08-24T01:36:13;100441.72;;;22.15;100.00
75942;BME280;64622;46.220;19.878;2023-08-24T01:38:43;100453.13;;;22.12;100.00
75942;BME280;64622;46.220;19.878;2023-08-24T01:41:19;100437.66;;;22.06;100.00
75942;BME280;64622;46.220;19.878;2023-08-24T01:43:52;100450.84;;;22.09;100.00
75942;BME280;64622;46.220;19.878;2023-08-24T01:46:21;100439.63;;;21.99;100.00
75942;BME280;64622;46.220;19.878;2023-08-24T01:48:49;100445.94;;;21.99;100.00
75942;BME280;64622;46.220;19.878;2023-08-24T01:51:18;100458.50;;;22.00;100.00
75942;BME280;64622;46.220;19.878;2023-08-24T01:53:46;100451.00;;;21.96;100.00
75942;BME280;64622;46.220;19.878;2023-08-24T01:56:15;100456.44;;;21.96;100.00
75942;BME280;64622;46.220;19.878;2023-08-24T01:58:42;100453.97;;;21.94;100.00
75942;BME280;64622;46.220;19.878;2023-08-24T02:01:09;100452.97;;;21.89;100.00
75942;BME280;64622;46.220;19.878;2023-08-24T02:03:36;100449.88;;;21.85;100.00
75942;BME280;64622;46.220;19.878;2023-08-24T02:06:05;100444.50;;;21.79;100.00
75942;BME280;64622;46.220;19.878;2023-08-24T02:08:33;100456.47;;;21.78;100.00
75942;BME280;64622;46.220;19.878;2023-08-24T02:11:00;100463.41;;;21.74;100.00
75942;BME280;64622;46.220;19.878;2023-08-24T02:13:27;100456.78;;;21.63;100.00
75942;BME280;64622;46.220;19.878;2023-08-24T02:16:03;100472.91;;;21.65;100.00
75942;BME280;64622;46.220;19.878;2023-08-24T02:18:30;100466.66;;;21.64;100.00
75942;BME280;64622;46.220;19.878;2023-08-24T02:20:57;100460.19;;;21.59;100.00
75942;BME280;64622;46.220;19.878;2023-08-24T02:23:23;100461.66;;;21.61;100.00
75942;BME280;64622;46.220;19.878;2023-08-24T02:25:50;100454.81;;;21.52;100.00
75942;BME280;64622;46.220;19.878;2023-08-24T02:28:17;100456.94;;;21.50;100.00
75942;BME280;64622;46.220;19.878;2023-08-24T02:30:43;100452.62;;;21.43;100.00
75942;BME280;64622;46.220;19.878;2023-08-24T02:33:10;100460.63;;;21.38;100.00
75942;BME280;64622;46.220;19.878;2023-08-24T02:35:37;100461.69;;;21.37;100.00
75942;BME280;64622;46.220;19.878;2023-08-24T02:38:03;100471.75;;;21.36;100.00
75942;BME280;64622;46.220;19.878;2023-08-24T02:40:30;100469.25;;;21.35;100.00
75942;BME280;64622;46.220;19.878;2023-08-24T02:42:56;100466.09;;;21.38;100.00
75942;BME280;64622;46.220;19.878;2023-08-24T02:45:23;100465.44;;;21.36;100.00
75942;BME280;64622;46.220;19.878;2023-08-24T02:47:50;100462.12;;;21.34;100.00
75942;BME280;64622;46.220;19.878;2023-08-24T02:50:17;100466.91;;;21.38;100.00
75942;BME280;64622;46.220;19.878;2023-08-24T02:52:43;100471.59;;;21.31;100.00
75942;BME280;64622;46.220;19.878;2023-08-24T02:55:10;100470.53;;;21.32;100.00
75942;BME280;64622;46.220;19.878;2023-08-24T02:57:37;100467.03;;;21.25;100.00
75942;BME280;64622;46.220;19.878;2023-08-24T03:00:05;100479.97;;;21.30;100.00
75942;BME280;64622;46.220;19.878;2023-08-24T03:02:33;100482.31;;;21.26;100.00
75942;BME280;64622;46.220;19.878;2023-08-24T03:05:00;100481.94;;;21.23;100.00
75942;BME280;64622;46.220;19.878;2023-08-24T03:07:27;100484.81;;;21.28;100.00
75942;BME280;64622;46.220;19.878;2023-08-24T03:09:54;100494.87;;;21.27;100.00
75942;BME280;64622;46.220;19.878;2023-08-24T03:12:20;100491.16;;;21.22;100.00
75942;BME280;64622;46.220;19.878;2023-08-24T03:14:47;100490.75;;;21.18;100.00
75942;BME280;64622;46.220;19.878;2023-08-24T03:17:14;100493.88;;;21.22;100.00
75942;BME280;64622;46.220;19.878;2023-08-24T03:19:40;100492.66;;;21.18;100.00
75942;BME280;64622;46.220;19.878;2023-08-24T03:22:07;100483.69;;;21.11;100.00
75942;BME280;64622;46.220;19.878;2023-08-24T03:24:35;100486.25;;;21.06;100.00
75942;BME280;64622;46.220;19.878;2023-08-24T03:27:01;100487.47;;;21.10;100.00
75942;BME280;64622;46.220;19.878;2023-08-24T03:29:28;100472.72;;;20.99;100.00
75942;BME280;64622;46.220;19.878;2023-08-24T03:31:55;100477.53;;;20.97;100.00
75942;BME280;64622;46.220;19.878;2023-08-24T03:34:21;100479.47;;;20.90;100.00
75942;BME280;64622;46.220;19.878;2023-08-24T03:36:47;100476.94;;;20.95;100.00
75942;BME280;64622;46.220;19.878;2023-08-24T03:39:14;100479.44;;;20.97;100.00
75942;BME280;64622;46.220;19.878;2023-08-24T03:41:44;100488.03;;;20.94;100.00
75942;BME280;64622;46.220;19.878;2023-08-24T03:44:10;100486.97;;;20.95;100.00
75942;BME280;64622;46.220;19.878;2023-08-24T03:46:38;100498.03;;;21.00;100.00
75942;BME280;64622;46.220;19.878;2023-08-24T03:49:04;100494.25;;;21.01;100.00
75942;BME280;64622;46.220;19.878;2023-08-24T03:51:31;100497.22;;;20.99;100.00
75942;BME280;64622;46.220;19.878;2023-08-24T03:53:59;100491.34;;;20.96;100.00
75942;BME280;64622;46.220;19.878;2023-08-24T03:56:26;100499.13;;;20.92;100.00
75942;BME280;64622;46.220;19.878;2023-08-24T03:58:53;100506.88;;;20.95;100.00
75942;BME280;64622;46.220;19.878;2023-08-24T04:01:19;100506.88;;;20.95;100.00
75942;BME280;64622;46.220;19.878;2023-08-24T04:03:46;100511.69;;;20.93;100.00
75942;BME280;64622;46.220;19.878;2023-08-24T04:06:13;100513.12;;;20.96;100.00
75942;BME280;64622;46.220;19.878;2023-08-24T04:08:40;100515.63;;;20.97;100.00
75942;BME280;64622;46.220;19.878;2023-08-24T04:11:07;100515.66;;;20.91;100.00
75942;BME280;64622;46.220;19.878;2023-08-24T04:13:33;100511.84;;;20.98;100.00
75942;BME280;64622;46.220;19.878;2023-08-24T04:15:59;100512.31;;;20.95;100.00
75942;BME280;64622;46.220;19.878;2023-08-24T04:18:26;100510.56;;;21.01;100.00
75942;BME280;64622;46.220;19.878;2023-08-24T04:20:53;100510.34;;;21.02;100.00
75942;BME280;64622;46.220;19.878;2023-08-24T04:23:24;100512.03;;;21.03;100.00
75942;BME280;64622;46.220;19.878;2023-08-24T04:25:53;100509.09;;;21.05;100.00
75942;BME280;64622;46.220;19.878;2023-08-24T04:28:20;100511.94;;;21.16;100.00
75942;BME280;64622;46.220;19.878;2023-08-24T04:30:53;100507.25;;;21.23;100.00
75942;BME280;64622;46.220;19.878;2023-08-24T04:33:21;100514.94;;;21.33;100.00
75942;BME280;64622;46.220;19.878;2023-08-24T04:35:51;100508.91;;;21.49;100.00
75942;BME280;64622;46.220;19.878;2023-08-24T04:38:17;100517.19;;;21.60;100.00
75942;BME280;64622;46.220;19.878;2023-08-24T04:40:54;100508.97;;;21.67;100.00
75942;BME280;64622;46.220;19.878;2023-08-24T04:43:22;100505.72;;;21.76;100.00
75942;BME280;64622;46.220;19.878;2023-08-24T04:45:54;100517.09;;;21.91;100.00
75942;BME280;64622;46.220;19.878;2023-08-24T04:48:21;100514.97;;;21.93;100.00
75942;BME280;64622;46.220;19.878;2023-08-24T04:50:48;100511.09;;;22.01;100.00
75942;BME280;64622;46.220;19.878;2023-08-24T04:53:17;100519.72;;;22.16;100.00
75942;BME280;64622;46.220;19.878;2023-08-24T04:55:44;100528.22;;;22.26;100.00
75942;BME280;64622;46.220;19.878;2023-08-24T04:58:11;100518.31;;;22.49;100.00
75942;BME280;64622;46.220;19.878;2023-08-24T05:00:39;100513.81;;;22.55;100.00
75942;BME280;64622;46.220;19.878;2023-08-24T05:03:06;100525.06;;;22.76;100.00
75942;BME280;64622;46.220;19.878;2023-08-24T05:05:34;100522.03;;;22.66;100.00
75942;BME280;64622;46.220;19.878;2023-08-24T05:08:03;100513.94;;;22.89;100.00
75942;BME280;64622;46.220;19.878;2023-08-24T05:10:33;100518.37;;;23.02;100.00
75942;BME280;64622;46.220;19.878;2023-08-24T05:13:00;100524.34;;;23.22;100.00
75942;BME280;64622;46.220;19.878;2023-08-24T05:15:27;100532.34;;;23.35;100.00
75942;BME280;64622;46.220;19.878;2023-08-24T05:17:53;100532.13;;;23.36;100.00
75942;BME280;64622;46.220;19.878;2023-08-24T05:20:22;100527.00;;;23.28;100.00
75942;BME280;64622;46.220;19.878;2023-08-24T05:22:49;100517.03;;;23.57;100.00
75942;BME280;64622;46.220;19.878;2023-08-24T05:25:15;100541.06;;;23.78;100.00
75942;BME280;64622;46.220;19.878;2023-08-24T05:27:45;100539.97;;;23.79;100.00
75942;BME280;64622;46.220;19.878;2023-08-24T05:30:12;100529.50;;;23.76;100.00
75942;BME280;64622;46.220;19.878;2023-08-24T05:32:39;100544.59;;;23.78;100.00
75942;BME280;64622;46.220;19.878;2023-08-24T05:35:06;100531.87;;;23.84;100.00
75942;BME280;64622;46.220;19.878;2023-08-24T05:37:34;100536.53;;;24.06;100.00
75942;BME280;64622;46.220;19.878;2023-08-24T05:40:01;100544.53;;;24.36;100.00
75942;BME280;64622;46.220;19.878;2023-08-24T05:42:28;100539.03;;;24.59;100.00
75942;BME280;64622;46.220;19.878;2023-08-24T05:44:54;100537.31;;;24.30;100.00
75942;BME280;64622;46.220;19.878;2023-08-24T05:47:21;100529.38;;;24.68;100.00
75942;BME280;64622;46.220;19.878;2023-08-24T05:49:48;100533.41;;;24.93;100.00
75942;BME280;64622;46.220;19.878;2023-08-24T05:52:14;100534.75;;;25.07;100.00
75942;BME280;64622;46.220;19.878;2023-08-24T05:54:41;100538.53;;;25.34;100.00
75942;BME280;64622;46.220;19.878;2023-08-24T05:57:07;100541.03;;;25.36;100.00
75942;BME280;64622;46.220;19.878;2023-08-24T05:59:34;100543.78;;;25.69;99.65
75942;BME280;64622;46.220;19.878;2023-08-24T06:02:01;100536.09;;;25.87;98.84
75942;BME280;64622;46.220;19.878;2023-08-24T06:04:28;100537.84;;;25.93;98.90
75942;BME280;64622;46.220;19.878;2023-08-24T06:06:54;100533.09;;;25.89;98.79
75942;BME280;64622;46.220;19.878;2023-08-24T06:09:21;100527.09;;;26.08;98.41
75942;BME280;64622;46.220;19.878;2023-08-24T06:11:48;100537.28;;;26.13;97.82
75942;BME280;64622;46.220;19.878;2023-08-24T06:14:14;100542.13;;;26.44;96.56
75942;BME280;64622;46.220;19.878;2023-08-24T06:16:41;100541.03;;;26.66;96.59
75942;BME280;64622;46.220;19.878;2023-08-24T06:19:09;100534.81;;;26.76;96.17
75942;BME280;64622;46.220;19.878;2023-08-24T06:21:35;100543.16;;;26.86;94.76
75942;BME280;64622;46.220;19.878;2023-08-24T06:24:02;100539.16;;;27.20;93.03
75942;BME280;64622;46.220;19.878;2023-08-24T06:26:30;100544.31;;;27.16;92.94
75942;BME280;64622;46.220;19.878;2023-08-24T06:28:57;100553.22;;;27.02;93.29
75942;BME280;64622;46.220;19.878;2023-08-24T06:31:24;100550.16;;;27.51;92.00
75942;BME280;64622;46.220;19.878;2023-08-24T06:33:50;100537.69;;;27.39;91.31
75942;BME280;64622;46.220;19.878;2023-08-24T06:36:17;100538.81;;;27.79;90.13
75942;BME280;64622;46.220;19.878;2023-08-24T06:38:43;100550.31;;;28.13;88.05
75942;BME280;64622;46.220;19.878;2023-08-24T06:41:10;100549.00;;;28.25;85.80
75942;BME280;64622;46.220;19.878;2023-08-24T06:43:38;100551.12;;;28.60;85.05
75942;BME280;64622;46.220;19.878;2023-08-24T06:46:07;100544.47;;;28.51;84.84
75942;BME280;64622;46.220;19.878;2023-08-24T06:48:35;100551.47;;;28.83;83.09
75942;BME280;64622;46.220;19.878;2023-08-24T06:51:03;100554.81;;;29.00;80.27
75942;BME280;64622;46.220;19.878;2023-08-24T06:53:29;100549.63;;;29.24;78.94
75942;BME280;64622;46.220;19.878;2023-08-24T06:55:57;100564.38;;;28.78;80.32
75942;BME280;64622;46.220;19.878;2023-08-24T06:58:23;100560.34;;;29.05;79.46
75942;BME280;64622;46.220;19.878;2023-08-24T07:00:50;100569.22;;;29.17;78.70
75942;BME280;64622;46.220;19.878;2023-08-24T07:03:18;100564.28;;;29.54;74.75
75942;BME280;64622;46.220;19.878;2023-08-24T07:05:45;100570.31;;;29.51;74.49
75942;BME280;64622;46.220;19.878;2023-08-24T07:08:13;100575.00;;;30.06;73.05
75942;BME280;64622;46.220;19.878;2023-08-24T07:10:42;100572.22;;;30.31;70.25
75942;BME280;64622;46.220;19.878;2023-08-24T07:13:09;100565.84;;;30.30;68.12
75942;BME280;64622;46.220;19.878;2023-08-24T07:15:35;100582.31;;;30.55;69.07
75942;BME280;64622;46.220;19.878;2023-08-24T07:18:02;100570.19;;;31.05;66.80
75942;BME280;64622;46.220;19.878;2023-08-24T07:20:29;100578.78;;;30.45;67.95
75942;BME280;64622;46.220;19.878;2023-08-24T07:22:56;100578.38;;;30.76;66.88
75942;BME280;64622;46.220;19.878;2023-08-24T07:25:24;100583.09;;;30.76;66.78
75942;BME280;64622;46.220;19.878;2023-08-24T07:27:50;100573.75;;;30.57;64.90
75942;BME280;64622;46.220;19.878;2023-08-24T07:30:17;100579.53;;;30.70;65.54
75942;BME280;64622;46.220;19.878;2023-08-24T07:32:44;100577.84;;;30.79;65.64
75942;BME280;64622;46.220;19.878;2023-08-24T07:35:11;100579.00;;;31.17;64.59
75942;BME280;64622;46.220;19.878;2023-08-24T07:37:38;100580.94;;;31.11;65.53
75942;BME280;64622;46.220;19.878;2023-08-24T07:40:06;100573.25;;;31.47;61.75
75942;BME280;64622;46.220;19.878;2023-08-24T07:42:45;100565.84;;;31.37;62.71
75942;BME280;64622;46.220;19.878;2023-08-24T07:45:12;100573.63;;;31.36;60.82
75942;BME280;64622;46.220;19.878;2023-08-24T07:47:40;100568.81;;;31.85;59.90
75942;BME280;64622;46.220;19.878;2023-08-24T07:50:08;100577.06;;;31.90;59.03
75942;BME280;64622;46.220;19.878;2023-08-24T07:52:37;100585.87;;;32.20;58.82
75942;BME280;64622;46.220;19.878;2023-08-24T07:55:05;100582.44;;;32.33;58.16
75942;BME280;64622;46.220;19.878;2023-08-24T07:57:33;100586.09;;;32.00;58.54
75942;BME280;64622;46.220;19.878;2023-08-24T08:00:01;100585.63;;;31.93;58.66
75942;BME280;64622;46.220;19.878;2023-08-24T08:02:38;100586.81;;;30.36;66.37
75942;BME280;64622;46.220;19.878;2023-08-24T08:05:05;100588.66;;;31.92;59.00
75942;BME280;64622;46.220;19.878;2023-08-24T08:07:36;100580.00;;;32.50;54.94
75942;BME280;64622;46.220;19.878;2023-08-24T08:10:04;100590.66;;;32.15;56.65
75942;BME280;64622;46.220;19.878;2023-08-24T08:12:31;100582.16;;;33.00;54.55
75942;BME280;64622;46.220;19.878;2023-08-24T08:14:58;100584.50;;;33.30;52.95
75942;BME280;64622;46.220;19.878;2023-08-24T08:17:25;100595.97;;;33.24;53.11
75942;BME280;64622;46.220;19.878;2023-08-24T08:19:55;100585.53;;;33.53;51.94
75942;BME280;64622;46.220;19.878;2023-08-24T08:22:23;100583.50;;;33.03;53.06
75942;BME280;64622;46.220;19.878;2023-08-24T08:24:49;100584.47;;;33.12;52.74
75942;BME280;64622;46.220;19.878;2023-08-24T08:27:16;100577.06;;;33.07;51.60
75942;BME280;64622;46.220;19.878;2023-08-24T08:29:43;100582.59;;;33.26;52.21
75942;BME280;64622;46.220;19.878;2023-08-24T08:32:09;100585.94;;;33.78;50.85
75942;BME280;64622;46.220;19.878;2023-08-24T08:34:38;100577.47;;;34.02;50.14
75942;BME280;64622;46.220;19.878;2023-08-24T08:37:05;100586.09;;;33.87;49.97
75942;BME280;64622;46.220;19.878;2023-08-24T08:39:32;100585.31;;;34.13;48.49
75942;BME280;64622;46.220;19.878;2023-08-24T08:41:59;100595.50;;;33.72;49.41
75942;BME280;64622;46.220;19.878;2023-08-24T08:44:30;100583.81;;;34.34;48.18
75942;BME280;64622;46.220;19.878;2023-08-24T08:47:00;100582.47;;;34.72;46.60
75942;BME280;64622;46.220;19.878;2023-08-24T08:49:30;100581.44;;;33.32;49.42
75942;BME280;64622;46.220;19.878;2023-08-24T08:51:56;100583.72;;;34.39;47.61
75942;BME280;64622;46.220;19.878;2023-08-24T08:54:23;100582.09;;;34.38;47.67
75942;BME280;64622;46.220;19.878;2023-08-24T08:56:50;100584.22;;;34.41;46.99
75942;BME280;64622;46.220;19.878;2023-08-24T08:59:17;100582.28;;;34.55;46.37
75942;BME280;64622;46.220;19.878;2023-08-24T09:01:45;100587.22;;;34.85;45.48
75942;BME280;64622;46.220;19.878;2023-08-24T09:04:13;100580.94;;;34.39;46.39
75942;BME280;64622;46.220;19.878;2023-08-24T09:06:40;100582.97;;;35.01;44.71
75942;BME280;64622;46.220;19.878;2023-08-24T09:09:07;100574.75;;;34.83;44.54
75942;BME280;64622;46.220;19.878;2023-08-24T09:11:34;100582.72;;;35.11;43.93
75942;BME280;64622;46.220;19.878;2023-08-24T09:14:01;100576.22;;;35.51;43.57
75942;BME280;64622;46.220;19.878;2023-08-24T09:16:32;100572.50;;;33.85;47.90
75942;BME280;64622;46.220;19.878;2023-08-24T09:18:58;100567.34;;;33.60;48.89
75942;BME280;64622;46.220;19.878;2023-08-24T09:21:25;100573.53;;;33.39;48.90
75942;BME280;64622;46.220;19.878;2023-08-24T09:23:54;100563.03;;;33.86;46.47
75942;BME280;64622;46.220;19.878;2023-08-24T09:26:28;100582.19;;;34.33;46.40
75942;BME280;64622;46.220;19.878;2023-08-24T09:28:57;100578.91;;;35.21;44.15
75942;BME280;64622;46.220;19.878;2023-08-24T09:31:38;100580.22;;;35.37;43.83
75942;BME280;64622;46.220;19.878;2023-08-24T09:34:11;100575.34;;;36.17;42.56
75942;BME280;64622;46.220;19.878;2023-08-24T09:36:38;100585.13;;;36.06;41.74
75942;BME280;64622;46.220;19.878;2023-08-24T09:39:08;100581.31;;;35.93;39.28
75942;BME280;64622;46.220;19.878;2023-08-24T09:41:37;100578.31;;;35.90;38.96
75942;BME280;64622;46.220;19.878;2023-08-24T09:44:05;100568.94;;;36.16;38.06
75942;BME280;64622;46.220;19.878;2023-08-24T09:46:31;100563.81;;;36.10;39.23
75942;BME280;64622;46.220;19.878;2023-08-24T09:48:58;100560.47;;;36.21;39.18
75942;BME280;64622;46.220;19.878;2023-08-24T09:51:27;100560.44;;;36.52;37.90
75942;BME280;64622;46.220;19.878;2023-08-24T09:53:57;100563.38;;;36.16;37.68
75942;BME280;64622;46.220;19.878;2023-08-24T09:56:28;100560.53;;;36.08;37.88
75942;BME280;64622;46.220;19.878;2023-08-24T09:58:55;100564.53;;;35.85;38.95
75942;BME280;64622;46.220;19.878;2023-08-24T10:01:27;100567.78;;;37.04;37.31
75942;BME280;64622;46.220;19.878;2023-08-24T10:03:57;100559.75;;;36.46;37.56
75942;BME280;64622;46.220;19.878;2023-08-24T10:06:26;100548.59;;;36.55;37.56
75942;BME280;64622;46.220;19.878;2023-08-24T10:08:58;100547.38;;;36.69;36.10
75942;BME280;64622;46.220;19.878;2023-08-24T10:11:28;100551.88;;;37.21;34.61
75942;BME280;64622;46.220;19.878;2023-08-24T10:14:24;100545.31;;;37.60;33.10
75942;BME280;64622;46.220;19.878;2023-08-24T10:16:53;100537.06;;;36.00;34.48
75942;BME280;64622;46.220;19.878;2023-08-24T10:19:22;100532.66;;;37.45;33.54
75942;BME280;64622;46.220;19.878;2023-08-24T10:21:49;100531.50;;;36.95;34.43
75942;BME280;64622;46.220;19.878;2023-08-24T10:24:18;100524.44;;;37.66;33.09
75942;BME280;64622;46.220;19.878;2023-08-24T10:26:47;100532.91;;;38.03;31.91
75942;BME280;64622;46.220;19.878;2023-08-24T10:29:14;100526.22;;;37.02;33.11
75942;BME280;64622;46.220;19.878;2023-08-24T10:31:42;100521.87;;;37.90;30.90
75942;BME280;64622;46.220;19.878;2023-08-24T10:34:10;100525.41;;;38.24;31.02
75942;BME280;64622;46.220;19.878;2023-08-24T10:36:40;100513.00;;;37.96;31.13
75942;BME280;64622;46.220;19.878;2023-08-24T10:39:07;100510.63;;;37.69;30.13
75942;BME280;64622;46.220;19.878;2023-08-24T10:41:50;100512.28;;;37.45;30.92
75942;BME280;64622;46.220;19.878;2023-08-24T10:44:37;100506.91;;;38.40;29.53
75942;BME280;64622;46.220;19.878;2023-08-24T10:47:11;100511.97;;;37.63;30.25
75942;BME280;64622;46.220;19.878;2023-08-24T10:49:42;100508.37;;;37.20;30.86
75942;BME280;64622;46.220;19.878;2023-08-24T10:52:22;100505.06;;;38.15;30.05
75942;BME280;64622;46.220;19.878;2023-08-24T10:54:53;100493.06;;;37.43;30.87
75942;BME280;64622;46.220;19.878;2023-08-24T10:57:24;100501.97;;;37.28;31.08
75942;BME280;64622;46.220;19.878;2023-08-24T11:05:15;100494.37;;;36.86;31.24
75942;BME280;64622;46.220;19.878;2023-08-24T11:07:53;100487.75;;;37.67;30.92
75942;BME280;64622;46.220;19.878;2023-08-24T11:10:22;100496.72;;;38.36;29.33
75942;BME280;64622;46.220;19.878;2023-08-24T11:15:32;100479.44;;;36.65;31.54
75942;BME280;64622;46.220;19.878;2023-08-24T11:18:31;100479.72;;;36.55;31.15
75942;BME280;64622;46.220;19.878;2023-08-24T11:21:06;100477.53;;;36.44;31.72
75942;BME280;64622;46.220;19.878;2023-08-24T11:23:33;100473.56;;;35.58;33.49
75942;BME280;64622;46.220;19.878;2023-08-24T11:26:01;100476.16;;;35.11;33.13
75942;BME280;64622;46.220;19.878;2023-08-24T11:28:29;100469.88;;;36.58;31.20
75942;BME280;64622;46.220;19.878;2023-08-24T11:30:57;100475.81;;;37.07;30.91
75942;BME280;64622;46.220;19.878;2023-08-24T11:33:29;100470.56;;;37.31;30.09
75942;BME280;64622;46.220;19.878;2023-08-24T11:35:56;100468.38;;;37.54;30.29
75942;BME280;64622;46.220;19.878;2023-08-24T11:38:23;100474.87;;;38.29;29.17
75942;BME280;64622;46.220;19.878;2023-08-24T11:40:50;100463.81;;;38.04;30.77
75942;BME280;64622;46.220;19.878;2023-08-24T11:43:26;100462.66;;;38.34;29.43
75942;BME280;64622;46.220;19.878;2023-08-24T11:45:54;100466.88;;;36.37;31.50
75942;BME280;64622;46.220;19.878;2023-08-24T11:48:25;100455.22;;;36.35;31.92
75942;BME280;64622;46.220;19.878;2023-08-24T11:50:57;100465.66;;;35.08;34.47
75942;BME280;64622;46.220;19.878;2023-08-24T11:53:24;100459.91;;;36.82;31.74
75942;BME280;64622;46.220;19.878;2023-08-24T11:55:53;100461.03;;;36.64;31.65
75942;BME280;64622;46.220;19.878;2023-08-24T11:58:20;100461.53;;;36.66;31.23
75942;BME280;64622;46.220;19.878;2023-08-24T12:00:47;100448.84;;;36.43;31.95
75942;BME280;64622;46.220;19.878;2023-08-24T12:03:14;100460.09;;;35.52;33.70
75942;BME280;64622;46.220;19.878;2023-08-24T12:05:41;100439.63;;;35.56;33.16
75942;BME280;64622;46.220;19.878;2023-08-24T12:08:11;100453.84;;;37.23;30.89
75942;BME280;64622;46.220;19.878;2023-08-24T12:10:44;100439.84;;;35.38;32.94
75942;BME280;64622;46.220;19.878;2023-08-24T12:13:12;100444.59;;;37.48;30.40
75942;BME280;64622;46.220;19.878;2023-08-24T12:15:40;100436.69;;;37.58;29.76
75942;BME280;64622;46.220;19.878;2023-08-24T12:18:11;100447.69;;;38.38;28.45
75942;BME280;64622;46.220;19.878;2023-08-24T12:20:38;100442.75;;;39.05;27.54
75942;BME280;64622;46.220;19.878;2023-08-24T12:23:07;100440.06;;;38.18;28.99
75942;BME280;64622;46.220;19.878;2023-08-24T12:25:37;100432.25;;;36.30;31.47
75942;BME280;64622;46.220;19.878;2023-08-24T12:28:14;100428.06;;;37.00;30.88
75942;BME280;64622;46.220;19.878;2023-08-24T12:30:52;100421.59;;;36.32;31.41
75942;BME280;64622;46.220;19.878;2023-08-24T12:33:30;100423.13;;;36.97;30.59
75942;BME280;64622;46.220;19.878;2023-08-24T12:35:58;100418.50;;;37.10;30.58
75942;BME280;64622;46.220;19.878;2023-08-24T12:38:28;100430.41;;;38.07;28.61
75942;BME280;64622;46.220;19.878;2023-08-24T12:40:55;100425.44;;;37.75;28.24
75942;BME280;64622;46.220;19.878;2023-08-24T12:43:21;100414.09;;;37.00;29.59
75942;BME280;64622;46.220;19.878;2023-08-24T12:45:48;100409.25;;;37.60;28.94
75942;BME280;64622;46.220;19.878;2023-08-24T12:48:15;100411.50;;;36.78;29.43
75942;BME280;64622;46.220;19.878;2023-08-24T12:50:42;100414.81;;;37.98;28.10
75942;BME280;64622;46.220;19.878;2023-08-24T12:53:08;100401.50;;;37.95;28.35
75942;BME280;64622;46.220;19.878;2023-08-24T12:55:38;100397.25;;;36.07;30.36